createdAt,value
2023-03-31T00:01:13.622Z,99.90
2023-03-31T00:03:43.966Z,99.90
2023-03-31T00:06:17.871Z,99.90
2023-03-31T00:08:44.924Z,99.90
2023-03-31T00:11:11.966Z,99.90
2023-03-31T00:13:39.115Z,99.90
2023-03-31T00:16:08.681Z,99.90
2023-03-31T00:18:40.919Z,99.90
2023-03-31T00:21:25.310Z,99.90
2023-03-31T00:24:06.709Z,99.90
2023-03-31T00:26:34.920Z,99.90
2023-03-31T00:29:04.257Z,99.90
2023-03-31T00:31:31.474Z,99.90
2023-03-31T00:33:58.642Z,99.90
2023-03-31T00:36:28.682Z,99.90
2023-03-31T00:39:06.070Z,99.90
2023-03-31T00:41:32.733Z,99.90
2023-03-31T00:44:08.687Z,99.90
2023-03-31T00:46:43.909Z,99.90
2023-03-31T00:49:31.415Z,99.90
2023-03-31T00:52:05.153Z,99.90
2023-03-31T00:54:36.478Z,99.90
2023-03-31T00:57:10.105Z,99.90
2023-03-31T00:59:53.482Z,99.90
2023-03-31T01:02:25.570Z,99.90
2023-03-31T01:04:59.253Z,99.90
2023-03-31T01:07:43.362Z,99.90
2023-03-31T01:10:13.342Z,99.90
2023-03-31T01:12:43.835Z,99.90
2023-03-31T01:15:13.677Z,99.90
2023-03-31T01:17:44.673Z,99.90
2023-03-31T01:20:32.581Z,99.90
2023-03-31T01:23:14.258Z,99.90
2023-03-31T01:26:05.424Z,99.90
2023-03-31T01:28:35.286Z,99.90
2023-03-31T01:31:33.061Z,99.90
2023-03-31T01:34:25.638Z,99.90
2023-03-31T01:37:19.668Z,99.90
2023-03-31T01:40:01.577Z,99.90
2023-03-31T01:42:52.876Z,99.90
2023-03-31T01:45:22.052Z,99.90
2023-03-31T01:47:58.108Z,99.90
2023-03-31T01:50:30.897Z,99.90
2023-03-31T01:53:35.180Z,99.90
2023-03-31T01:56:57.135Z,99.90
2023-03-31T01:59:28.019Z,99.90
2023-03-31T02:01:59.972Z,99.90
2023-03-31T02:04:50.494Z,99.90
2023-03-31T02:07:26.121Z,99.90
2023-03-31T02:10:01.537Z,99.90
2023-03-31T02:12:34.784Z,99.90
2023-03-31T02:15:07.639Z,99.90
2023-03-31T02:17:35.002Z,99.90
2023-03-31T02:20:06.300Z,99.90
2023-03-31T02:22:39.011Z,99.90
2023-03-31T02:25:08.468Z,99.90
2023-03-31T02:27:43.444Z,99.90
2023-03-31T02:30:11.753Z,99.90
2023-03-31T02:32:43.369Z,99.90
2023-03-31T02:35:14.879Z,99.90
2023-03-31T02:37:42.497Z,99.90
2023-03-31T02:40:16.656Z,99.90
2023-03-31T02:45:40.318Z,99.90
2023-03-31T02:48:17.351Z,99.90
2023-03-31T02:51:02.192Z,99.90
2023-03-31T02:54:08.786Z,99.90
2023-03-31T02:56:43.509Z,99.90
2023-03-31T02:59:49.218Z,99.90
2023-03-31T03:02:59.850Z,99.90
2023-03-31T03:06:05.864Z,99.90
2023-03-31T03:09:00.523Z,99.90
2023-03-31T03:11:39.590Z,99.90
2023-03-31T03:14:17.265Z,99.90
2023-03-31T03:16:52.359Z,99.90
2023-03-31T03:19:23.393Z,99.90
2023-03-31T03:21:50.256Z,99.90
2023-03-31T03:24:17.963Z,99.90
2023-03-31T03:26:45.804Z,99.90
2023-03-31T03:29:14.797Z,99.90
2023-03-31T03:31:42.434Z,99.90
2023-03-31T03:34:09.717Z,99.90
2023-03-31T03:36:39.763Z,99.90
2023-03-31T03:39:07.685Z,99.90
2023-03-31T03:41:37.115Z,99.90
2023-03-31T03:44:06.232Z,99.90
2023-03-31T03:46:33.179Z,99.90
2023-03-31T03:49:02.189Z,99.90
2023-03-31T03:54:00.830Z,99.90
2023-03-31T03:56:29.890Z,99.90
2023-03-31T03:58:57.537Z,99.90
2023-03-31T04:01:26.774Z,99.90
2023-03-31T04:03:55.555Z,99.90
2023-03-31T04:06:22.228Z,99.90
2023-03-31T04:08:51.151Z,99.90
2023-03-31T04:11:19.380Z,99.90
2023-03-31T04:13:46.936Z,99.90
2023-03-31T04:16:16.679Z,99.90
2023-03-31T04:18:43.599Z,99.90
2023-03-31T04:21:15.531Z,99.90
2023-03-31T04:23:49.682Z,99.90
2023-03-31T04:26:18.641Z,99.90
2023-03-31T04:28:51.190Z,99.90
2023-03-31T04:31:25.532Z,99.90
2023-03-31T04:33:53.660Z,99.90
2023-03-31T04:36:21.670Z,99.90
2023-03-31T04:38:56.245Z,99.90
2023-03-31T04:41:27.527Z,99.90
2023-03-31T04:43:56.756Z,99.90
2023-03-31T04:46:23.562Z,99.90
2023-03-31T04:48:50.322Z,99.90
2023-03-31T04:51:17.051Z,99.90
2023-03-31T04:53:43.695Z,99.90
2023-03-31T04:56:10.710Z,99.90
2023-03-31T04:58:37.443Z,99.90
2023-03-31T05:01:06.778Z,99.90
2023-03-31T05:03:34.536Z,99.90
2023-03-31T05:06:01.519Z,99.90
2023-03-31T05:08:28.234Z,99.90
2023-03-31T05:10:55.011Z,99.90
2023-03-31T05:13:21.684Z,99.90
2023-03-31T05:15:50.733Z,99.90
2023-03-31T05:18:18.144Z,99.90
2023-03-31T05:20:44.942Z,99.90
2023-03-31T05:23:13.920Z,99.90
2023-03-31T05:28:10.249Z,99.90
2023-03-31T05:30:36.947Z,99.90
2023-03-31T05:33:06.546Z,99.90
2023-03-31T05:35:33.306Z,99.90
2023-03-31T05:38:00.014Z,99.90
2023-03-31T05:40:26.796Z,99.90
2023-03-31T05:45:20.759Z,99.90
2023-03-31T05:47:49.851Z,99.90
2023-03-31T05:50:19.324Z,99.90
2023-03-31T05:52:48.183Z,99.90
2023-03-31T05:55:15.014Z,99.90
2023-03-31T05:57:41.798Z,99.90
2023-03-31T06:00:11.273Z,99.90
2023-03-31T06:02:41.537Z,99.90
2023-03-31T06:05:11.894Z,99.90
2023-03-31T06:07:41.117Z,99.90
2023-03-31T06:10:10.624Z,99.90
2023-03-31T06:12:37.537Z,99.90
2023-03-31T06:15:04.522Z,99.90
2023-03-31T06:17:31.214Z,99.90
2023-03-31T06:20:07.645Z,99.90
2023-03-31T06:25:12.495Z,99.90
2023-03-31T06:27:39.208Z,99.90
2023-03-31T06:30:06.756Z,99.90
2023-03-31T06:32:33.426Z,99.90
2023-03-31T06:35:00.333Z,99.90
2023-03-31T06:37:27.040Z,99.90
2023-03-31T06:39:56.270Z,99.90
2023-03-31T06:42:23.010Z,99.90
2023-03-31T06:44:49.926Z,99.90
2023-03-31T06:47:19.212Z,99.90
2023-03-31T06:49:46.227Z,99.90
2023-03-31T06:52:12.972Z,99.90
2023-03-31T06:54:39.944Z,99.90
2023-03-31T06:57:06.768Z,99.90
2023-03-31T06:59:36.544Z,99.90
2023-03-31T07:02:03.399Z,99.90
2023-03-31T07:04:30.131Z,99.90
2023-03-31T07:06:58.658Z,99.90
2023-03-31T07:09:27.712Z,99.90
2023-03-31T07:11:56.922Z,99.90
2023-03-31T07:14:26.171Z,99.90
2023-03-31T07:16:55.611Z,99.90
2023-03-31T07:19:24.864Z,99.90
2023-03-31T07:21:54.214Z,99.90
2023-03-31T07:24:20.990Z,99.90
2023-03-31T07:26:47.679Z,99.90
2023-03-31T07:29:14.559Z,99.90
2023-03-31T07:31:41.324Z,99.90
2023-03-31T07:34:10.575Z,99.90
2023-03-31T07:36:37.277Z,99.90
2023-03-31T07:39:05.769Z,99.90
2023-03-31T07:41:32.524Z,99.90
2023-03-31T07:44:01.906Z,99.90
2023-03-31T07:46:33.247Z,99.90
2023-03-31T07:51:32.034Z,99.90
2023-03-31T07:54:03.452Z,99.90
2023-03-31T07:56:30.102Z,99.90
2023-03-31T07:58:57.910Z,99.90
2023-03-31T08:01:26.203Z,99.90
2023-03-31T08:03:55.798Z,99.90
2023-03-31T08:06:24.340Z,99.90
2023-03-31T08:08:51.616Z,99.90
2023-03-31T08:11:21.142Z,99.90
2023-03-31T08:13:50.258Z,99.90
2023-03-31T08:16:19.321Z,99.90
2023-03-31T08:18:48.496Z,99.90
2023-03-31T08:21:15.279Z,99.90
2023-03-31T08:23:42.092Z,99.90
2023-03-31T08:26:08.962Z,99.90
2023-03-31T08:28:35.821Z,99.90
2023-03-31T08:31:12.762Z,99.90
2023-03-31T08:33:39.663Z,99.90
2023-03-31T08:36:11.687Z,99.90
2023-03-31T08:38:49.643Z,99.90
2023-03-31T08:41:28.693Z,99.60
2023-03-31T08:43:59.940Z,99.90
2023-03-31T08:46:29.587Z,98.70
2023-03-31T08:48:58.411Z,97.90
2023-03-31T08:51:28.947Z,97.10
2023-03-31T08:54:03.528Z,96.50
2023-03-31T08:56:34.695Z,95.60
2023-03-31T08:59:02.770Z,95.20
2023-03-31T09:01:56.296Z,94.20
2023-03-31T09:04:53.799Z,93.90
2023-03-31T09:07:32.081Z,92.60
2023-03-31T09:10:17.574Z,92.40
2023-03-31T09:13:14.943Z,92.00
2023-03-31T09:16:05.100Z,91.20
2023-03-31T09:18:38.456Z,91.60
2023-03-31T09:21:11.091Z,91.70
2023-03-31T09:24:10.368Z,90.40
2023-03-31T09:26:56.782Z,92.60
2023-03-31T09:29:51.238Z,91.90
2023-03-31T09:32:22.862Z,93.00
2023-03-31T09:34:57.456Z,91.60
2023-03-31T09:37:30.130Z,91.80
2023-03-31T09:40:07.846Z,91.00
2023-03-31T09:42:36.527Z,91.80
2023-03-31T09:45:06.584Z,91.90
2023-03-31T09:47:42.868Z,90.70
2023-03-31T09:50:11.423Z,90.50
2023-03-31T09:52:48.988Z,90.40
2023-03-31T09:55:32.118Z,88.80
2023-03-31T09:58:09.934Z,89.50
2023-03-31T10:00:42.303Z,89.70
2023-03-31T10:03:13.681Z,89.70
2023-03-31T10:05:51.080Z,89.50
2023-03-31T10:08:53.546Z,90.40
2023-03-31T10:11:20.447Z,88.50
2023-03-31T10:14:02.192Z,88.00
2023-03-31T10:16:43.224Z,87.20
2023-03-31T10:19:23.697Z,86.60
2023-03-31T10:22:16.983Z,86.00
2023-03-31T10:24:45.497Z,83.10
2023-03-31T10:27:22.948Z,83.50
2023-03-31T10:29:57.227Z,80.10
2023-03-31T10:32:29.808Z,79.90
2023-03-31T10:35:01.850Z,80.30
2023-03-31T10:37:29.976Z,78.60
2023-03-31T10:40:05.828Z,78.50
2023-03-31T10:42:32.993Z,77.60
2023-03-31T10:45:35.796Z,77.00
2023-03-31T10:48:24.643Z,76.50
2023-03-31T10:50:54.140Z,77.70
2023-03-31T10:53:21.984Z,76.20
2023-03-31T10:55:58.111Z,76.10
2023-03-31T10:58:30.914Z,77.20
2023-03-31T11:01:17.310Z,78.50
2023-03-31T11:04:21.752Z,78.00
2023-03-31T11:07:19.531Z,79.50
2023-03-31T11:10:23.990Z,82.90
2023-03-31T11:12:56.813Z,84.00
2023-03-31T11:16:04.597Z,85.50
2023-03-31T11:18:40.178Z,87.30
2023-03-31T11:21:22.076Z,90.30
2023-03-31T11:24:09.659Z,90.20
2023-03-31T11:26:58.639Z,90.70
2023-03-31T11:29:28.303Z,90.90
2023-03-31T11:32:22.818Z,91.10
2023-03-31T11:35:18.724Z,91.50
2023-03-31T11:38:24.019Z,91.40
2023-03-31T11:41:02.130Z,91.30
2023-03-31T11:43:41.932Z,91.50
2023-03-31T11:46:13.270Z,91.20
2023-03-31T11:49:05.364Z,91.30
2023-03-31T11:51:41.392Z,91.00
2023-03-31T11:54:23.389Z,90.60
2023-03-31T11:56:51.511Z,90.30
2023-03-31T11:59:22.964Z,90.40
2023-03-31T12:02:04.935Z,91.00
2023-03-31T12:04:40.296Z,90.90
2023-03-31T12:07:45.161Z,90.70
2023-03-31T12:10:21.182Z,90.50
2023-03-31T12:13:25.651Z,90.10
2023-03-31T12:16:24.483Z,89.60
2023-03-31T12:19:28.054Z,88.90
2023-03-31T12:22:26.297Z,87.70
2023-03-31T12:24:53.812Z,87.00
2023-03-31T12:27:49.585Z,85.80
2023-03-31T12:30:25.705Z,85.80
2023-03-31T12:33:03.847Z,84.30
2023-03-31T12:36:06.926Z,82.90
2023-03-31T12:38:57.850Z,83.40
2023-03-31T12:41:33.286Z,83.50
2023-03-31T12:44:25.493Z,83.30
2023-03-31T12:47:13.122Z,82.00
2023-03-31T12:50:17.358Z,81.00
2023-03-31T12:52:58.345Z,80.40
2023-03-31T12:55:28.924Z,80.60
2023-03-31T12:58:32.734Z,80.20
2023-03-31T13:01:15.312Z,81.40
2023-03-31T13:03:45.070Z,80.70
2023-03-31T13:06:29.927Z,82.90
2023-03-31T13:09:04.142Z,83.80
2023-03-31T13:11:33.923Z,84.60
2023-03-31T13:14:15.643Z,85.30
2023-03-31T13:16:42.638Z,86.00
2023-03-31T13:19:27.609Z,87.80
2023-03-31T13:22:02.135Z,88.30
2023-03-31T13:24:31.197Z,90.10
2023-03-31T13:27:31.185Z,90.30
2023-03-31T13:32:26.530Z,90.90
2023-03-31T13:35:00.111Z,91.70
2023-03-31T13:37:51.401Z,91.90
2023-03-31T13:40:33.338Z,92.30
2023-03-31T13:43:30.371Z,92.50
2023-03-31T13:46:15.782Z,93.30
2023-03-31T13:49:07.758Z,93.00
2023-03-31T13:52:03.301Z,93.40
2023-03-31T13:55:10.746Z,93.30
2023-03-31T13:57:54.313Z,92.80
2023-03-31T14:00:33.104Z,92.70
2023-03-31T14:03:14.507Z,92.90
2023-03-31T14:06:33.945Z,93.00
2023-03-31T14:09:16.341Z,93.10
2023-03-31T14:11:43.021Z,93.10
2023-03-31T14:14:17.803Z,93.40
2023-03-31T14:17:02.386Z,93.70
2023-03-31T14:20:10.444Z,93.80
2023-03-31T14:22:56.496Z,93.90
2023-03-31T14:25:44.142Z,93.80
2023-03-31T14:28:35.251Z,93.80
2023-03-31T14:31:23.969Z,93.50
2023-03-31T14:34:29.356Z,93.50
2023-03-31T14:37:04.851Z,93.40
2023-03-31T14:39:37.716Z,92.60
2023-03-31T14:42:10.471Z,92.70
2023-03-31T14:44:38.266Z,92.90
2023-03-31T14:47:08.786Z,92.80
2023-03-31T14:49:38.525Z,92.80
2023-03-31T14:52:24.326Z,92.50
2023-03-31T14:54:53.512Z,92.00
2023-03-31T14:57:31.439Z,91.70
2023-03-31T15:00:08.188Z,91.30
2023-03-31T15:02:44.340Z,90.80
2023-03-31T15:05:33.529Z,90.50
2023-03-31T15:08:03.336Z,90.60
2023-03-31T15:10:38.078Z,90.30
2023-03-31T15:13:16.670Z,90.30
2023-03-31T15:15:46.286Z,90.70
2023-03-31T15:18:14.754Z,90.20
2023-03-31T15:20:42.880Z,90.50
2023-03-31T15:23:40.414Z,90.70
2023-03-31T15:26:12.216Z,90.70
2023-03-31T15:28:57.082Z,90.40
2023-03-31T15:31:27.029Z,90.30
2023-03-31T15:33:56.812Z,91.00
2023-03-31T15:36:24.858Z,90.40
2023-03-31T15:39:00.267Z,90.10
2023-03-31T15:41:32.794Z,90.40
2023-03-31T15:44:29.967Z,90.80
2023-03-31T15:47:00.767Z,90.70
2023-03-31T15:49:29.223Z,90.80
2023-03-31T15:54:36.925Z,90.90
2023-03-31T15:57:06.363Z,90.80
2023-03-31T15:59:55.817Z,91.60
2023-03-31T16:02:26.893Z,91.80
2023-03-31T16:04:59.413Z,91.60
2023-03-31T16:07:29.734Z,92.10
2023-03-31T16:10:18.449Z,92.70
2023-03-31T16:12:58.913Z,92.80
2023-03-31T16:15:38.707Z,93.40
2023-03-31T16:18:17.774Z,94.00
2023-03-31T16:20:53.270Z,94.30
2023-03-31T16:23:24.881Z,94.60
2023-03-31T16:25:54.506Z,94.80
2023-03-31T16:28:27.185Z,95.10
2023-03-31T16:31:01.726Z,95.00
2023-03-31T16:33:32.972Z,94.90
2023-03-31T16:36:04.860Z,95.20
2023-03-31T16:38:31.649Z,95.40
2023-03-31T16:41:01.531Z,95.50
2023-03-31T16:43:30.681Z,95.40
2023-03-31T16:46:03.871Z,95.20
2023-03-31T16:48:33.808Z,95.50
2023-03-31T16:51:01.403Z,95.40
2023-03-31T16:53:36.229Z,95.40
2023-03-31T16:56:05.195Z,95.70
2023-03-31T16:58:31.964Z,95.80
2023-03-31T17:00:58.932Z,96.10
2023-03-31T17:03:26.840Z,95.80
2023-03-31T17:05:58.484Z,96.30
2023-03-31T17:08:31.317Z,96.10
2023-03-31T17:11:16.089Z,96.40
2023-03-31T17:13:44.928Z,97.00
2023-03-31T17:18:44.778Z,97.70
2023-03-31T17:21:14.122Z,98.00
2023-03-31T17:23:41.906Z,98.00
2023-03-31T17:26:12.984Z,98.60
2023-03-31T17:28:40.660Z,98.80
2023-03-31T17:31:25.574Z,98.90
2023-03-31T17:36:22.318Z,99.10
2023-03-31T17:38:51.995Z,99.70
2023-03-31T17:41:19.179Z,99.90
2023-03-31T17:43:50.181Z,99.90
2023-03-31T17:46:17.706Z,99.90
2023-03-31T17:48:45.149Z,99.90
2023-03-31T17:51:19.577Z,99.90
2023-03-31T17:53:49.832Z,99.90
2023-03-31T17:56:17.536Z,99.90
2023-03-31T17:58:45.267Z,99.90
2023-03-31T18:01:12.865Z,99.90
2023-03-31T18:03:41.472Z,99.90
2023-03-31T18:06:11.462Z,99.90
2023-03-31T18:11:08.083Z,99.90
2023-03-31T18:13:37.118Z,99.90
2023-03-31T18:16:09.488Z,99.90
2023-03-31T18:18:37.690Z,99.90
2023-03-31T18:21:07.478Z,99.90
2023-03-31T18:23:34.894Z,99.90
2023-03-31T18:26:02.145Z,99.90
2023-03-31T18:28:33.604Z,99.90
2023-03-31T18:31:11.342Z,99.90
2023-03-31T18:33:41.582Z,99.90
2023-03-31T18:36:13.189Z,99.90
2023-03-31T18:38:42.545Z,99.90
2023-03-31T18:41:12.636Z,99.90
2023-03-31T18:46:06.653Z,99.90
2023-03-31T18:48:35.185Z,99.90
2023-03-31T18:53:30.531Z,99.90
2023-03-31T18:56:01.302Z,99.90
2023-03-31T18:58:29.389Z,99.90
2023-03-31T19:00:57.701Z,99.90
2023-03-31T19:03:26.596Z,99.90
2023-03-31T19:06:02.756Z,99.90
2023-03-31T19:08:30.408Z,99.90
2023-03-31T19:11:11.401Z,99.90
2023-03-31T19:13:38.952Z,99.90
2023-03-31T19:16:11.008Z,99.90
2023-03-31T19:18:38.931Z,99.90
2023-03-31T19:21:10.061Z,99.90
2023-03-31T19:23:36.773Z,99.90
2023-03-31T19:26:03.934Z,99.90
2023-03-31T19:28:30.912Z,99.90
2023-03-31T19:30:59.325Z,99.90
2023-03-31T19:33:29.237Z,99.90
2023-03-31T19:35:59.039Z,99.90
2023-03-31T19:38:26.825Z,99.90
2023-03-31T19:40:56.265Z,99.90
2023-03-31T19:43:24.688Z,99.90
2023-03-31T19:45:57.517Z,99.90
2023-03-31T19:48:26.446Z,99.90
2023-03-31T19:50:56.999Z,99.90
2023-03-31T19:53:24.255Z,99.90
2023-03-31T19:55:59.068Z,99.90
2023-03-31T19:58:27.086Z,99.90
2023-03-31T20:00:57.390Z,99.90
2023-03-31T20:03:28.024Z,99.90
2023-03-31T20:06:04.089Z,99.90
2023-03-31T20:08:33.598Z,99.90
2023-03-31T20:11:06.470Z,99.90
2023-03-31T20:13:35.811Z,99.90
2023-03-31T20:16:11.788Z,99.90
2023-03-31T20:21:13.346Z,99.90
2023-03-31T20:23:41.638Z,99.90
2023-03-31T20:26:10.722Z,99.90
2023-03-31T20:28:41.010Z,99.90
2023-03-31T20:31:14.017Z,99.90
2023-03-31T20:33:42.282Z,99.90
2023-03-31T20:36:19.597Z,99.90
2023-03-31T20:38:51.078Z,99.90
2023-03-31T20:41:22.284Z,99.90
2023-03-31T20:43:50.434Z,99.90
2023-03-31T20:46:17.255Z,99.90
2023-03-31T20:48:47.638Z,99.90
2023-03-31T20:51:17.624Z,99.90
2023-03-31T20:53:47.680Z,99.90
2023-03-31T20:56:19.768Z,99.90
2023-03-31T20:58:47.902Z,99.90
2023-03-31T21:01:15.915Z,99.90
2023-03-31T21:03:43.369Z,99.90
2023-03-31T21:06:12.630Z,99.90
2023-03-31T21:08:40.748Z,99.90
2023-03-31T21:11:08.057Z,99.90
2023-03-31T21:13:37.299Z,99.90
2023-03-31T21:16:04.910Z,99.90
2023-03-31T21:18:33.943Z,99.90
2023-03-31T21:21:02.753Z,99.90
2023-03-31T21:23:33.573Z,99.90
2023-03-31T21:26:02.665Z,99.90
2023-03-31T21:28:34.089Z,99.90
2023-03-31T21:31:04.415Z,99.90
2023-03-31T21:33:35.359Z,99.90
2023-03-31T21:36:04.568Z,99.90
2023-03-31T21:38:31.307Z,99.90
2023-03-31T21:41:04.202Z,99.90
2023-03-31T21:43:33.858Z,99.90
2023-03-31T21:46:01.290Z,99.90
2023-03-31T21:48:28.682Z,99.90
2023-03-31T21:50:56.220Z,99.90
2023-03-31T21:53:23.349Z,99.90
2023-03-31T21:55:55.171Z,99.90
2023-03-31T21:58:28.331Z,99.90
2023-03-31T22:00:57.541Z,99.90
2023-03-31T22:03:33.944Z,99.90
2023-03-31T22:06:09.487Z,99.90
2023-03-31T22:08:39.367Z,99.90
2023-03-31T22:11:08.805Z,99.90
2023-03-31T22:13:36.770Z,99.90
2023-03-31T22:16:04.822Z,99.90
2023-03-31T22:18:32.083Z,99.90
2023-03-31T22:21:02.506Z,99.90
2023-03-31T22:23:32.706Z,99.90
2023-03-31T22:26:01.849Z,99.90
2023-03-31T22:28:28.804Z,99.90
2023-03-31T22:30:57.788Z,99.90
2023-03-31T22:33:24.551Z,99.90
2023-03-31T22:35:58.484Z,99.90
2023-03-31T22:38:25.266Z,99.90
2023-03-31T22:40:51.959Z,99.90
2023-03-31T22:43:20.891Z,99.90
2023-03-31T22:50:45.581Z,99.90
2023-03-31T22:53:12.730Z,99.90
2023-03-31T22:55:54.247Z,99.90
2023-03-31T22:58:26.099Z,99.90
2023-03-31T23:00:57.875Z,99.90
2023-03-31T23:03:27.356Z,99.90
2023-03-31T23:05:56.363Z,99.90
2023-03-31T23:08:23.636Z,99.90
2023-03-31T23:10:58.662Z,99.90
2023-03-31T23:13:28.840Z,99.90
2023-03-31T23:15:55.667Z,99.90
2023-03-31T23:18:25.623Z,99.90
2023-03-31T23:20:52.431Z,99.90
2023-03-31T23:23:21.521Z,99.90
2023-03-31T23:25:50.483Z,99.90
2023-03-31T23:28:17.197Z,99.90
2023-03-31T23:30:52.228Z,99.90
2023-03-31T23:33:19.309Z,99.90
2023-03-31T23:35:45.943Z,99.90
2023-03-31T23:38:15.202Z,99.90
2023-03-31T23:40:44.520Z,99.90
2023-03-31T23:43:11.171Z,99.90
2023-03-31T23:45:40.569Z,99.90
2023-03-31T23:48:12.165Z,99.90
2023-03-31T23:50:38.916Z,99.90
2023-03-31T23:53:08.092Z,99.90
2023-03-31T23:55:35.130Z,99.90
2023-03-31T23:58:02.436Z,99.90
